sensor_id;sensor_type;location;lat;lon;timestamp;temperature;humidity
8684;DHT22;4379;59.744;18.206;2024-02-26T00:01:05;-2.40;99.90
8684;DHT22;4379;59.744;18.206;2024-02-26T00:03:32;-2.40;99.90
8684;DHT22;4379;59.744;18.206;2024-02-26T00:06:02;-2.40;99.90
8684;DHT22;4379;59.744;18.206;2024-02-26T00:08:30;-2.40;99.90
8684;DHT22;4379;59.744;18.206;2024-02-26T00:10:57;-2.40;99.90
8684;DHT22;4379;59.744;18.206;2024-02-26T00:13:24;-2.40;99.90
8684;DHT22;4379;59.744;18.206;2024-02-26T00:15:51;-2.40;99.90
8684;DHT22;4379;59.744;18.206;2024-02-26T00:18:18;-2.50;99.90
8684;DHT22;4379;59.744;18.206;2024-02-26T00:20:45;-2.50;99.90
8684;DHT22;4379;59.744;18.206;2024-02-26T00:23:15;-2.60;99.90
8684;DHT22;4379;59.744;18.206;2024-02-26T00:25:42;-2.60;99.90
8684;DHT22;4379;59.744;18.206;2024-02-26T00:28:10;-2.60;99.90
8684;DHT22;4379;59.744;18.206;2024-02-26T00:30:37;-2.60;99.90
8684;DHT22;4379;59.744;18.206;2024-02-26T00:33:04;-2.60;99.90
8684;DHT22;4379;59.744;18.206;2024-02-26T00:35:31;-2.60;99.90
8684;DHT22;4379;59.744;18.206;2024-02-26T00:37:58;-2.60;99.90
8684;DHT22;4379;59.744;18.206;2024-02-26T00:40:27;-2.60;99.90
8684;DHT22;4379;59.744;18.206;2024-02-26T00:42:54;-2.60;99.90
8684;DHT22;4379;59.744;18.206;2024-02-26T00:45:22;-2.70;99.90
8684;DHT22;4379;59.744;18.206;2024-02-26T00:47:49;-2.70;99.90
8684;DHT22;4379;59.744;18.206;2024-02-26T00:50:16;-2.60;99.90
8684;DHT22;4379;59.744;18.206;2024-02-26T00:52:43;-2.50;99.90
8684;DHT22;4379;59.744;18.206;2024-02-26T00:55:10;-2.50;99.90
8684;DHT22;4379;59.744;18.206;2024-02-26T00:57:37;-2.60;99.90
8684;DHT22;4379;59.744;18.206;2024-02-26T01:00:05;-2.60;99.90
8684;DHT22;4379;59.744;18.206;2024-02-26T01:02:35;-2.70;99.90
8684;DHT22;4379;59.744;18.206;2024-02-26T01:05:02;-2.70;99.90
8684;DHT22;4379;59.744;18.206;2024-02-26T01:07:29;-2.70;99.90
8684;DHT22;4379;59.744;18.206;2024-02-26T01:10:03;-2.70;99.90
8684;DHT22;4379;59.744;18.206;2024-02-26T01:12:30;-2.60;99.90
8684;DHT22;4379;59.744;18.206;2024-02-26T01:14:57;-2.60;99.90
8684;DHT22;4379;59.744;18.206;2024-02-26T01:17:24;-2.50;99.90
8684;DHT22;4379;59.744;18.206;2024-02-26T01:19:51;-2.40;99.90
8684;DHT22;4379;59.744;18.206;2024-02-26T01:22:20;-2.30;99.90
8684;DHT22;4379;59.744;18.206;2024-02-26T01:24:47;-2.30;99.90
8684;DHT22;4379;59.744;18.206;2024-02-26T01:27:14;-2.20;99.90
8684;DHT22;4379;59.744;18.206;2024-02-26T01:29:42;-2.10;99.90
8684;DHT22;4379;59.744;18.206;2024-02-26T01:32:10;-2.00;99.90
8684;DHT22;4379;59.744;18.206;2024-02-26T01:34:37;-2.20;99.90
8684;DHT22;4379;59.744;18.206;2024-02-26T01:37:04;-2.30;99.90
8684;DHT22;4379;59.744;18.206;2024-02-26T01:39:31;-2.30;99.90
8684;DHT22;4379;59.744;18.206;2024-02-26T01:41:58;-2.30;99.90
8684;DHT22;4379;59.744;18.206;2024-02-26T01:44:26;-2.20;99.90
8684;DHT22;4379;59.744;18.206;2024-02-26T01:46:54;-2.20;99.90
8684;DHT22;4379;59.744;18.206;2024-02-26T01:49:21;-2.20;99.90
8684;DHT22;4379;59.744;18.206;2024-02-26T01:51:49;-2.20;99.90
8684;DHT22;4379;59.744;18.206;2024-02-26T01:54:16;-2.20;99.90
8684;DHT22;4379;59.744;18.206;2024-02-26T01:56:43;-2.30;99.90
8684;DHT22;4379;59.744;18.206;2024-02-26T01:59:10;-2.10;99.90
8684;DHT22;4379;59.744;18.206;2024-02-26T02:01:38;-2.00;99.90
8684;DHT22;4379;59.744;18.206;2024-02-26T02:04:07;-1.90;99.90
8684;DHT22;4379;59.744;18.206;2024-02-26T02:06:36;-1.80;99.90
8684;DHT22;4379;59.744;18.206;2024-02-26T02:09:04;-1.90;99.90
8684;DHT22;4379;59.744;18.206;2024-02-26T02:11:33;-1.90;99.90
8684;DHT22;4379;59.744;18.206;2024-02-26T02:14:01;-1.90;99.90
8684;DHT22;4379;59.744;18.206;2024-02-26T02:16:28;-2.00;99.90
8684;DHT22;4379;59.744;18.206;2024-02-26T02:18:55;-1.90;99.90
8684;DHT22;4379;59.744;18.206;2024-02-26T02:21:22;-1.90;99.90
8684;DHT22;4379;59.744;18.206;2024-02-26T02:23:49;-1.80;99.90
8684;DHT22;4379;59.744;18.206;2024-02-26T02:26:17;-1.80;99.90
8684;DHT22;4379;59.744;18.206;2024-02-26T02:28:45;-1.80;99.90
8684;DHT22;4379;59.744;18.206;2024-02-26T02:31:12;-1.80;99.90
8684;DHT22;4379;59.744;18.206;2024-02-26T02:33:40;-1.90;99.90
8684;DHT22;4379;59.744;18.206;2024-02-26T02:36:07;-1.70;99.90
8684;DHT22;4379;59.744;18.206;2024-02-26T02:38:37;-1.50;99.90
8684;DHT22;4379;59.744;18.206;2024-02-26T02:41:05;-1.50;99.90
8684;DHT22;4379;59.744;18.206;2024-02-26T02:43:32;-1.40;99.90
8684;DHT22;4379;59.744;18.206;2024-02-26T02:45:59;-1.50;99.90
8684;DHT22;4379;59.744;18.206;2024-02-26T02:48:26;-1.40;99.90
8684;DHT22;4379;59.744;18.206;2024-02-26T02:50:53;-1.30;99.90
8684;DHT22;4379;59.744;18.206;2024-02-26T02:53:20;-1.30;99.90
8684;DHT22;4379;59.744;18.206;2024-02-26T02:55:47;-1.20;99.90
8684;DHT22;4379;59.744;18.206;2024-02-26T02:58:15;-1.10;99.90
8684;DHT22;4379;59.744;18.206;2024-02-26T03:00:42;-1.10;99.90
8684;DHT22;4379;59.744;18.206;2024-02-26T03:03:09;-1.10;99.90
8684;DHT22;4379;59.744;18.206;2024-02-26T03:05:36;-1.00;99.90
8684;DHT22;4379;59.744;18.206;2024-02-26T03:08:04;-1.00;99.90
8684;DHT22;4379;59.744;18.206;2024-02-26T03:10:31;-0.80;99.90
8684;DHT22;4379;59.744;18.206;2024-02-26T03:12:58;-0.80;99.90
8684;DHT22;4379;59.744;18.206;2024-02-26T03:15:25;-0.60;99.90
8684;DHT22;4379;59.744;18.206;2024-02-26T03:17:52;-0.50;99.90
8684;DHT22;4379;59.744;18.206;2024-02-26T03:20:19;-0.40;99.90
8684;DHT22;4379;59.744;18.206;2024-02-26T03:22:46;-0.30;99.90
8684;DHT22;4379;59.744;18.206;2024-02-26T03:25:13;-0.20;99.90
8684;DHT22;4379;59.744;18.206;2024-02-26T03:27:40;-0.20;99.90
8684;DHT22;4379;59.744;18.206;2024-02-26T03:30:08;-0.20;99.90
8684;DHT22;4379;59.744;18.206;2024-02-26T03:32:36;-0.20;99.90
8684;DHT22;4379;59.744;18.206;2024-02-26T03:35:03;-0.20;99.90
8684;DHT22;4379;59.744;18.206;2024-02-26T03:37:30;-0.10;99.90
8684;DHT22;4379;59.744;18.206;2024-02-26T03:39:57;0.00;99.90
8684;DHT22;4379;59.744;18.206;2024-02-26T03:42:24;0.10;99.90
8684;DHT22;4379;59.744;18.206;2024-02-26T03:44:51;0.00;99.90
8684;DHT22;4379;59.744;18.206;2024-02-26T03:47:18;0.10;99.90
8684;DHT22;4379;59.744;18.206;2024-02-26T03:49:45;0.10;99.90
8684;DHT22;4379;59.744;18.206;2024-02-26T03:52:13;0.10;99.90
8684;DHT22;4379;59.744;18.206;2024-02-26T03:54:40;0.20;99.90
8684;DHT22;4379;59.744;18.206;2024-02-26T03:57:07;0.10;99.90
8684;DHT22;4379;59.744;18.206;2024-02-26T03:59:34;0.30;99.90
8684;DHT22;4379;59.744;18.206;2024-02-26T04:02:01;0.20;99.90
8684;DHT22;4379;59.744;18.206;2024-02-26T04:04:29;0.20;99.90
8684;DHT22;4379;59.744;18.206;2024-02-26T04:06:56;0.20;99.90
8684;DHT22;4379;59.744;18.206;2024-02-26T04:09:23;0.20;99.90
8684;DHT22;4379;59.744;18.206;2024-02-26T04:11:50;0.30;99.90
8684;DHT22;4379;59.744;18.206;2024-02-26T04:14:19;0.20;99.90
8684;DHT22;4379;59.744;18.206;2024-02-26T04:16:46;0.10;99.90
8684;DHT22;4379;59.744;18.206;2024-02-26T04:19:18;0.10;99.90
8684;DHT22;4379;59.744;18.206;2024-02-26T04:21:45;0.10;99.90
8684;DHT22;4379;59.744;18.206;2024-02-26T04:24:12;0.20;99.90
8684;DHT22;4379;59.744;18.206;2024-02-26T04:26:40;0.30;99.90
8684;DHT22;4379;59.744;18.206;2024-02-26T04:29:06;0.30;99.90
8684;DHT22;4379;59.744;18.206;2024-02-26T04:31:34;0.30;99.90
8684;DHT22;4379;59.744;18.206;2024-02-26T04:34:01;0.30;99.90
8684;DHT22;4379;59.744;18.206;2024-02-26T04:36:28;0.40;99.90
8684;DHT22;4379;59.744;18.206;2024-02-26T04:38:56;0.30;99.90
8684;DHT22;4379;59.744;18.206;2024-02-26T04:41:23;0.40;99.90
8684;DHT22;4379;59.744;18.206;2024-02-26T04:43:50;0.30;99.90
8684;DHT22;4379;59.744;18.206;2024-02-26T04:46:17;0.30;99.90
8684;DHT22;4379;59.744;18.206;2024-02-26T04:48:44;0.30;99.90
8684;DHT22;4379;59.744;18.206;2024-02-26T04:51:13;0.30;99.90
8684;DHT22;4379;59.744;18.206;2024-02-26T04:53:40;0.30;99.90
8684;DHT22;4379;59.744;18.206;2024-02-26T04:56:07;0.30;99.90
8684;DHT22;4379;59.744;18.206;2024-02-26T04:58:35;0.30;99.90
8684;DHT22;4379;59.744;18.206;2024-02-26T05:01:03;0.40;99.90
8684;DHT22;4379;59.744;18.206;2024-02-26T05:03:30;0.30;99.90
8684;DHT22;4379;59.744;18.206;2024-02-26T05:06:02;0.20;99.90
8684;DHT22;4379;59.744;18.206;2024-02-26T05:08:29;0.30;99.90
8684;DHT22;4379;59.744;18.206;2024-02-26T05:10:57;0.40;99.90
8684;DHT22;4379;59.744;18.206;2024-02-26T05:13:24;0.30;99.90
8684;DHT22;4379;59.744;18.206;2024-02-26T05:15:51;0.30;99.90
8684;DHT22;4379;59.744;18.206;2024-02-26T05:18:19;0.30;99.90
8684;DHT22;4379;59.744;18.206;2024-02-26T05:20:46;0.40;99.90
8684;DHT22;4379;59.744;18.206;2024-02-26T05:23:13;0.30;99.90
8684;DHT22;4379;59.744;18.206;2024-02-26T05:25:40;0.20;99.90
8684;DHT22;4379;59.744;18.206;2024-02-26T05:28:08;0.20;99.90
8684;DHT22;4379;59.744;18.206;2024-02-26T05:30:36;0.30;99.90
8684;DHT22;4379;59.744;18.206;2024-02-26T05:33:06;0.40;99.90
8684;DHT22;4379;59.744;18.206;2024-02-26T05:35:33;0.40;99.90
8684;DHT22;4379;59.744;18.206;2024-02-26T05:38:00;0.30;99.90
8684;DHT22;4379;59.744;18.206;2024-02-26T05:40:27;0.20;99.90
8684;DHT22;4379;59.744;18.206;2024-02-26T05:42:54;0.20;99.90
8684;DHT22;4379;59.744;18.206;2024-02-26T05:45:21;0.20;99.90
8684;DHT22;4379;59.744;18.206;2024-02-26T05:47:48;0.10;99.90
8684;DHT22;4379;59.744;18.206;2024-02-26T05:50:17;0.10;99.90
8684;DHT22;4379;59.744;18.206;2024-02-26T05:52:44;0.10;99.90
8684;DHT22;4379;59.744;18.206;2024-02-26T05:55:11;0.20;99.90
8684;DHT22;4379;59.744;18.206;2024-02-26T05:57:39;0.10;99.90
8684;DHT22;4379;59.744;18.206;2024-02-26T06:00:06;0.20;99.90
8684;DHT22;4379;59.744;18.206;2024-02-26T06:02:36;0.20;99.90
8684;DHT22;4379;59.744;18.206;2024-02-26T06:05:04;0.20;99.90
8684;DHT22;4379;59.744;18.206;2024-02-26T06:07:31;0.30;99.90
8684;DHT22;4379;59.744;18.206;2024-02-26T06:09:58;0.40;99.90
8684;DHT22;4379;59.744;18.206;2024-02-26T06:12:25;0.40;99.90
8684;DHT22;4379;59.744;18.206;2024-02-26T06:14:53;0.50;99.90
8684;DHT22;4379;59.744;18.206;2024-02-26T06:17:20;0.60;99.90
8684;DHT22;4379;59.744;18.206;2024-02-26T06:19:47;0.70;99.90
8684;DHT22;4379;59.744;18.206;2024-02-26T06:22:14;0.60;99.90
8684;DHT22;4379;59.744;18.206;2024-02-26T06:24:41;0.70;99.90
8684;DHT22;4379;59.744;18.206;2024-02-26T06:27:08;0.80;99.90
8684;DHT22;4379;59.744;18.206;2024-02-26T06:29:35;0.80;99.90
8684;DHT22;4379;59.744;18.206;2024-02-26T06:32:03;0.90;99.90
8684;DHT22;4379;59.744;18.206;2024-02-26T06:34:30;0.90;99.90
8684;DHT22;4379;59.744;18.206;2024-02-26T06:36:57;0.90;99.90
8684;DHT22;4379;59.744;18.206;2024-02-26T06:39:24;1.00;99.90
8684;DHT22;4379;59.744;18.206;2024-02-26T06:41:51;1.00;99.90
8684;DHT22;4379;59.744;18.206;2024-02-26T06:44:25;1.20;99.90
8684;DHT22;4379;59.744;18.206;2024-02-26T06:46:52;1.30;99.90
8684;DHT22;4379;59.744;18.206;2024-02-26T06:49:19;1.10;99.90
8684;DHT22;4379;59.744;18.206;2024-02-26T06:51:46;1.20;99.90
8684;DHT22;4379;59.744;18.206;2024-02-26T06:54:13;1.30;99.90
8684;DHT22;4379;59.744;18.206;2024-02-26T06:56:41;1.40;99.90
8684;DHT22;4379;59.744;18.206;2024-02-26T06:59:08;1.50;99.90
8684;DHT22;4379;59.744;18.206;2024-02-26T07:01:35;1.50;99.90
8684;DHT22;4379;59.744;18.206;2024-02-26T07:04:02;1.70;99.90
8684;DHT22;4379;59.744;18.206;2024-02-26T07:06:29;1.70;99.90
8684;DHT22;4379;59.744;18.206;2024-02-26T07:08:57;1.80;99.90
8684;DHT22;4379;59.744;18.206;2024-02-26T07:11:24;1.80;99.90
8684;DHT22;4379;59.744;18.206;2024-02-26T07:13:51;2.00;99.90
8684;DHT22;4379;59.744;18.206;2024-02-26T07:16:18;2.10;99.90
8684;DHT22;4379;59.744;18.206;2024-02-26T07:18:48;2.10;99.90
8684;DHT22;4379;59.744;18.206;2024-02-26T07:21:15;2.20;99.90
8684;DHT22;4379;59.744;18.206;2024-02-26T07:23:42;1.90;99.90
8684;DHT22;4379;59.744;18.206;2024-02-26T07:26:09;1.90;99.90
8684;DHT22;4379;59.744;18.206;2024-02-26T07:28:38;2.00;99.90
8684;DHT22;4379;59.744;18.206;2024-02-26T07:31:05;1.60;99.90
8684;DHT22;4379;59.744;18.206;2024-02-26T07:33:33;1.80;99.90
8684;DHT22;4379;59.744;18.206;2024-02-26T07:36:00;1.90;99.90
8684;DHT22;4379;59.744;18.206;2024-02-26T07:38:27;1.90;99.90
8684;DHT22;4379;59.744;18.206;2024-02-26T07:41:08;2.00;99.90
8684;DHT22;4379;59.744;18.206;2024-02-26T07:43:35;1.90;99.90
8684;DHT22;4379;59.744;18.206;2024-02-26T07:46:02;2.10;99.90
8684;DHT22;4379;59.744;18.206;2024-02-26T07:48:29;2.20;99.90
8684;DHT22;4379;59.744;18.206;2024-02-26T07:50:57;2.30;99.90
8684;DHT22;4379;59.744;18.206;2024-02-26T07:53:27;2.40;99.90
8684;DHT22;4379;59.744;18.206;2024-02-26T07:55:54;2.40;99.90
8684;DHT22;4379;59.744;18.206;2024-02-26T07:58:23;2.30;99.90
8684;DHT22;4379;59.744;18.206;2024-02-26T08:00:50;2.30;99.90
8684;DHT22;4379;59.744;18.206;2024-02-26T08:03:17;2.40;99.90
8684;DHT22;4379;59.744;18.206;2024-02-26T08:05:44;2.30;99.90
8684;DHT22;4379;59.744;18.206;2024-02-26T08:08:12;2.00;99.90
8684;DHT22;4379;59.744;18.206;2024-02-26T08:10:39;2.10;99.90
8684;DHT22;4379;59.744;18.206;2024-02-26T08:13:06;2.20;99.90
8684;DHT22;4379;59.744;18.206;2024-02-26T08:15:33;2.40;99.90
8684;DHT22;4379;59.744;18.206;2024-02-26T08:18:09;2.50;99.90
8684;DHT22;4379;59.744;18.206;2024-02-26T08:20:37;2.70;99.90
8684;DHT22;4379;59.744;18.206;2024-02-26T08:23:04;2.90;99.90
8684;DHT22;4379;59.744;18.206;2024-02-26T08:25:31;2.70;99.90
8684;DHT22;4379;59.744;18.206;2024-02-26T08:27:58;2.50;99.90
8684;DHT22;4379;59.744;18.206;2024-02-26T08:30:26;2.20;99.90
8684;DHT22;4379;59.744;18.206;2024-02-26T08:32:53;2.40;99.90
8684;DHT22;4379;59.744;18.206;2024-02-26T08:35:20;2.30;99.90
8684;DHT22;4379;59.744;18.206;2024-02-26T08:37:48;2.40;99.90
8684;DHT22;4379;59.744;18.206;2024-02-26T08:40:15;2.40;99.90
8684;DHT22;4379;59.744;18.206;2024-02-26T08:42:42;2.60;99.90
8684;DHT22;4379;59.744;18.206;2024-02-26T08:45:09;2.70;99.90
8684;DHT22;4379;59.744;18.206;2024-02-26T08:47:37;2.90;99.90
8684;DHT22;4379;59.744;18.206;2024-02-26T08:50:05;2.60;99.90
8684;DHT22;4379;59.744;18.206;2024-02-26T08:52:32;2.70;99.90
8684;DHT22;4379;59.744;18.206;2024-02-26T08:55:00;2.70;99.90
8684;DHT22;4379;59.744;18.206;2024-02-26T08:57:27;2.90;99.90
8684;DHT22;4379;59.744;18.206;2024-02-26T08:59:54;3.00;99.90
8684;DHT22;4379;59.744;18.206;2024-02-26T09:02:21;3.00;99.90
8684;DHT22;4379;59.744;18.206;2024-02-26T09:04:48;3.10;99.90
8684;DHT22;4379;59.744;18.206;2024-02-26T09:07:18;3.00;99.90
8684;DHT22;4379;59.744;18.206;2024-02-26T09:09:45;2.50;99.90
8684;DHT22;4379;59.744;18.206;2024-02-26T09:12:12;2.70;99.90
8684;DHT22;4379;59.744;18.206;2024-02-26T09:14:39;2.50;99.90
8684;DHT22;4379;59.744;18.206;2024-02-26T09:17:06;2.30;99.90
8684;DHT22;4379;59.744;18.206;2024-02-26T09:19:34;2.50;99.90
8684;DHT22;4379;59.744;18.206;2024-02-26T09:22:02;2.80;99.90
8684;DHT22;4379;59.744;18.206;2024-02-26T09:24:29;2.80;99.90
8684;DHT22;4379;59.744;18.206;2024-02-26T09:26:56;3.30;99.90
8684;DHT22;4379;59.744;18.206;2024-02-26T09:29:23;3.50;99.90
8684;DHT22;4379;59.744;18.206;2024-02-26T09:31:50;3.70;99.90
8684;DHT22;4379;59.744;18.206;2024-02-26T09:34:18;4.00;99.90
8684;DHT22;4379;59.744;18.206;2024-02-26T09:36:45;4.10;99.90
8684;DHT22;4379;59.744;18.206;2024-02-26T09:39:12;3.60;99.90
8684;DHT22;4379;59.744;18.206;2024-02-26T09:41:44;3.70;99.90
8684;DHT22;4379;59.744;18.206;2024-02-26T09:44:15;3.80;99.90
8684;DHT22;4379;59.744;18.206;2024-02-26T09:46:45;3.40;99.90
8684;DHT22;4379;59.744;18.206;2024-02-26T09:49:15;3.20;99.90
8684;DHT22;4379;59.744;18.206;2024-02-26T09:51:42;3.10;99.90
8684;DHT22;4379;59.744;18.206;2024-02-26T09:54:10;3.60;99.90
8684;DHT22;4379;59.744;18.206;2024-02-26T09:56:39;3.80;99.90
8684;DHT22;4379;59.744;18.206;2024-02-26T09:59:26;4.10;99.90
8684;DHT22;4379;59.744;18.206;2024-02-26T10:01:54;3.90;99.90
8684;DHT22;4379;59.744;18.206;2024-02-26T10:04:22;3.70;99.90
8684;DHT22;4379;59.744;18.206;2024-02-26T10:06:51;3.70;99.90
8684;DHT22;4379;59.744;18.206;2024-02-26T10:09:19;3.80;99.90
8684;DHT22;4379;59.744;18.206;2024-02-26T10:11:49;4.00;99.90
8684;DHT22;4379;59.744;18.206;2024-02-26T10:14:16;4.10;99.90
8684;DHT22;4379;59.744;18.206;2024-02-26T10:16:44;3.60;99.90
8684;DHT22;4379;59.744;18.206;2024-02-26T10:19:27;3.70;99.90
8684;DHT22;4379;59.744;18.206;2024-02-26T10:22:00;3.80;99.90
8684;DHT22;4379;59.744;18.206;2024-02-26T10:24:28;3.40;99.90
8684;DHT22;4379;59.744;18.206;2024-02-26T10:27:02;3.20;99.90
8684;DHT22;4379;59.744;18.206;2024-02-26T10:29:30;3.30;99.90
8684;DHT22;4379;59.744;18.206;2024-02-26T10:31:57;3.20;99.90
8684;DHT22;4379;59.744;18.206;2024-02-26T10:34:24;3.20;99.90
8684;DHT22;4379;59.744;18.206;2024-02-26T10:36:53;3.30;99.90
8684;DHT22;4379;59.744;18.206;2024-02-26T10:39:21;3.10;99.90
8684;DHT22;4379;59.744;18.206;2024-02-26T10:41:50;2.90;99.90
8684;DHT22;4379;59.744;18.206;2024-02-26T10:44:17;3.10;99.90
8684;DHT22;4379;59.744;18.206;2024-02-26T10:46:48;3.10;99.90
8684;DHT22;4379;59.744;18.206;2024-02-26T10:49:20;2.80;99.90
8684;DHT22;4379;59.744;18.206;2024-02-26T10:51:54;2.70;99.90
8684;DHT22;4379;59.744;18.206;2024-02-26T10:54:25;3.00;99.90
8684;DHT22;4379;59.744;18.206;2024-02-26T10:56:53;2.80;99.90
8684;DHT22;4379;59.744;18.206;2024-02-26T10:59:23;2.70;99.90
8684;DHT22;4379;59.744;18.206;2024-02-26T11:01:50;3.10;99.90
8684;DHT22;4379;59.744;18.206;2024-02-26T11:04:18;3.00;99.90
8684;DHT22;4379;59.744;18.206;2024-02-26T11:06:46;3.20;99.90
8684;DHT22;4379;59.744;18.206;2024-02-26T11:09:15;3.30;99.90
8684;DHT22;4379;59.744;18.206;2024-02-26T11:11:44;3.50;99.90
8684;DHT22;4379;59.744;18.206;2024-02-26T11:14:11;3.30;99.90
8684;DHT22;4379;59.744;18.206;2024-02-26T11:16:40;3.40;99.90
8684;DHT22;4379;59.744;18.206;2024-02-26T11:19:10;3.40;99.90
8684;DHT22;4379;59.744;18.206;2024-02-26T11:21:40;3.60;99.90
8684;DHT22;4379;59.744;18.206;2024-02-26T11:24:12;3.70;99.90
8684;DHT22;4379;59.744;18.206;2024-02-26T11:26:46;3.80;99.90
8684;DHT22;4379;59.744;18.206;2024-02-26T11:29:21;4.20;99.90
8684;DHT22;4379;59.744;18.206;2024-02-26T11:31:50;4.30;99.90
8684;DHT22;4379;59.744;18.206;2024-02-26T11:34:17;4.50;99.90
8684;DHT22;4379;59.744;18.206;2024-02-26T11:36:46;4.60;99.90
8684;DHT22;4379;59.744;18.206;2024-02-26T11:39:14;4.50;99.90
8684;DHT22;4379;59.744;18.206;2024-02-26T11:41:44;4.60;99.90
8684;DHT22;4379;59.744;18.206;2024-02-26T11:44:11;4.80;99.90
8684;DHT22;4379;59.744;18.206;2024-02-26T11:46:42;4.90;99.90
8684;DHT22;4379;59.744;18.206;2024-02-26T11:49:29;5.00;99.90
8684;DHT22;4379;59.744;18.206;2024-02-26T11:51:58;5.00;99.90
8684;DHT22;4379;59.744;18.206;2024-02-26T11:54:49;5.30;99.90
8684;DHT22;4379;59.744;18.206;2024-02-26T11:57:37;5.30;99.90
8684;DHT22;4379;59.744;18.206;2024-02-26T12:00:14;4.80;99.90
8684;DHT22;4379;59.744;18.206;2024-02-26T12:02:50;5.10;99.90
8684;DHT22;4379;59.744;18.206;2024-02-26T12:05:32;5.00;99.90
8684;DHT22;4379;59.744;18.206;2024-02-26T12:08:07;5.20;99.90
8684;DHT22;4379;59.744;18.206;2024-02-26T12:10:36;4.60;99.90
8684;DHT22;4379;59.744;18.206;2024-02-26T12:13:14;4.90;99.90
8684;DHT22;4379;59.744;18.206;2024-02-26T12:15:56;5.20;99.90
8684;DHT22;4379;59.744;18.206;2024-02-26T12:18:25;5.40;99.90
8684;DHT22;4379;59.744;18.206;2024-02-26T12:21:02;5.00;99.90
8684;DHT22;4379;59.744;18.206;2024-02-26T12:23:30;4.50;99.90
8684;DHT22;4379;59.744;18.206;2024-02-26T12:26:01;4.40;99.90
8684;DHT22;4379;59.744;18.206;2024-02-26T12:28:33;4.30;99.90
8684;DHT22;4379;59.744;18.206;2024-02-26T12:31:00;4.30;99.90
8684;DHT22;4379;59.744;18.206;2024-02-26T12:33:30;4.40;99.90
8684;DHT22;4379;59.744;18.206;2024-02-26T12:35:57;4.40;99.90
8684;DHT22;4379;59.744;18.206;2024-02-26T12:38:26;4.10;99.90
8684;DHT22;4379;59.744;18.206;2024-02-26T12:40:54;4.00;99.90
8684;DHT22;4379;59.744;18.206;2024-02-26T12:43:21;3.90;99.90
8684;DHT22;4379;59.744;18.206;2024-02-26T12:45:48;3.90;99.90
8684;DHT22;4379;59.744;18.206;2024-02-26T12:48:15;4.00;99.90
8684;DHT22;4379;59.744;18.206;2024-02-26T12:50:46;4.30;99.90
8684;DHT22;4379;59.744;18.206;2024-02-26T12:53:16;4.20;99.90
8684;DHT22;4379;59.744;18.206;2024-02-26T12:55:44;3.90;99.90
8684;DHT22;4379;59.744;18.206;2024-02-26T12:58:12;3.90;99.90
8684;DHT22;4379;59.744;18.206;2024-02-26T13:00:39;3.90;99.90
8684;DHT22;4379;59.744;18.206;2024-02-26T13:03:08;3.90;99.90
8684;DHT22;4379;59.744;18.206;2024-02-26T13:05:36;4.00;99.90
8684;DHT22;4379;59.744;18.206;2024-02-26T13:08:04;4.20;99.90
8684;DHT22;4379;59.744;18.206;2024-02-26T13:10:35;4.20;99.90
8684;DHT22;4379;59.744;18.206;2024-02-26T13:13:02;4.30;99.90
8684;DHT22;4379;59.744;18.206;2024-02-26T13:15:29;4.20;99.90
8684;DHT22;4379;59.744;18.206;2024-02-26T13:17:57;4.30;99.90
8684;DHT22;4379;59.744;18.206;2024-02-26T13:20:34;4.10;99.90
8684;DHT22;4379;59.744;18.206;2024-02-26T13:23:02;4.20;99.90
8684;DHT22;4379;59.744;18.206;2024-02-26T13:25:30;4.20;99.90
8684;DHT22;4379;59.744;18.206;2024-02-26T13:28:17;4.40;99.90
8684;DHT22;4379;59.744;18.206;2024-02-26T13:30:51;4.40;99.90
8684;DHT22;4379;59.744;18.206;2024-02-26T13:33:29;4.60;99.90
8684;DHT22;4379;59.744;18.206;2024-02-26T13:35:58;4.30;99.90
8684;DHT22;4379;59.744;18.206;2024-02-26T13:38:26;4.10;99.90
8684;DHT22;4379;59.744;18.206;2024-02-26T13:40:53;4.10;99.90
8684;DHT22;4379;59.744;18.206;2024-02-26T13:43:20;4.30;99.90
8684;DHT22;4379;59.744;18.206;2024-02-26T13:45:47;4.30;99.90
8684;DHT22;4379;59.744;18.206;2024-02-26T13:48:15;4.50;99.90
8684;DHT22;4379;59.744;18.206;2024-02-26T13:50:43;4.40;99.90
8684;DHT22;4379;59.744;18.206;2024-02-26T13:53:12;4.50;99.90
8684;DHT22;4379;59.744;18.206;2024-02-26T13:55:41;4.70;99.90
8684;DHT22;4379;59.744;18.206;2024-02-26T13:58:12;4.80;99.90
8684;DHT22;4379;59.744;18.206;2024-02-26T14:00:40;4.90;99.90
8684;DHT22;4379;59.744;18.206;2024-02-26T14:03:10;5.10;99.90
8684;DHT22;4379;59.744;18.206;2024-02-26T14:05:37;5.00;99.90
8684;DHT22;4379;59.744;18.206;2024-02-26T14:08:05;4.90;99.90
8684;DHT22;4379;59.744;18.206;2024-02-26T14:10:32;5.00;99.90
8684;DHT22;4379;59.744;18.206;2024-02-26T14:12:59;5.00;99.90
8684;DHT22;4379;59.744;18.206;2024-02-26T14:15:28;4.80;99.90
8684;DHT22;4379;59.744;18.206;2024-02-26T14:18:00;5.00;99.90
8684;DHT22;4379;59.744;18.206;2024-02-26T14:20:29;4.90;99.90
8684;DHT22;4379;59.744;18.206;2024-02-26T14:22:56;4.90;99.90
8684;DHT22;4379;59.744;18.206;2024-02-26T14:25:23;4.90;99.90
8684;DHT22;4379;59.744;18.206;2024-02-26T14:27:54;4.90;99.90
8684;DHT22;4379;59.744;18.206;2024-02-26T14:30:21;4.70;99.90
8684;DHT22;4379;59.744;18.206;2024-02-26T14:32:48;4.50;99.90
8684;DHT22;4379;59.744;18.206;2024-02-26T14:35:16;4.30;99.90
8684;DHT22;4379;59.744;18.206;2024-02-26T14:37:44;4.40;99.90
8684;DHT22;4379;59.744;18.206;2024-02-26T14:40:15;4.20;99.90
8684;DHT22;4379;59.744;18.206;2024-02-26T14:42:42;4.20;99.90
8684;DHT22;4379;59.744;18.206;2024-02-26T14:45:09;4.30;99.90
8684;DHT22;4379;59.744;18.206;2024-02-26T14:47:38;4.50;99.90
8684;DHT22;4379;59.744;18.206;2024-02-26T14:50:06;4.70;99.90
8684;DHT22;4379;59.744;18.206;2024-02-26T14:52:34;4.80;99.90
8684;DHT22;4379;59.744;18.206;2024-02-26T14:55:01;4.80;99.90
8684;DHT22;4379;59.744;18.206;2024-02-26T14:57:28;4.50;99.90
8684;DHT22;4379;59.744;18.206;2024-02-26T14:59:55;4.40;99.90
8684;DHT22;4379;59.744;18.206;2024-02-26T15:02:22;4.30;99.90
8684;DHT22;4379;59.744;18.206;2024-02-26T15:04:49;4.40;99.90
8684;DHT22;4379;59.744;18.206;2024-02-26T15:07:16;4.40;99.90
8684;DHT22;4379;59.744;18.206;2024-02-26T15:09:44;4.30;99.90
8684;DHT22;4379;59.744;18.206;2024-02-26T15:12:11;4.40;99.90
8684;DHT22;4379;59.744;18.206;2024-02-26T15:14:38;4.40;99.90
8684;DHT22;4379;59.744;18.206;2024-02-26T15:17:05;4.20;99.90
8684;DHT22;4379;59.744;18.206;2024-02-26T15:19:37;4.20;99.90
8684;DHT22;4379;59.744;18.206;2024-02-26T15:22:05;4.10;99.90
8684;DHT22;4379;59.744;18.206;2024-02-26T15:24:32;4.20;99.90
8684;DHT22;4379;59.744;18.206;2024-02-26T15:26:59;4.20;99.90
8684;DHT22;4379;59.744;18.206;2024-02-26T15:29:26;4.10;99.90
8684;DHT22;4379;59.744;18.206;2024-02-26T15:31:53;4.00;99.90
8684;DHT22;4379;59.744;18.206;2024-02-26T15:34:21;4.00;99.90
8684;DHT22;4379;59.744;18.206;2024-02-26T15:36:48;3.90;99.90
8684;DHT22;4379;59.744;18.206;2024-02-26T15:39:15;3.80;99.90
8684;DHT22;4379;59.744;18.206;2024-02-26T15:41:42;3.70;99.90
8684;DHT22;4379;59.744;18.206;2024-02-26T15:44:09;3.50;99.90
8684;DHT22;4379;59.744;18.206;2024-02-26T15:46:40;3.50;99.90
8684;DHT22;4379;59.744;18.206;2024-02-26T15:49:08;3.40;99.90
8684;DHT22;4379;59.744;18.206;2024-02-26T15:51:40;3.40;99.90
8684;DHT22;4379;59.744;18.206;2024-02-26T15:54:07;3.40;99.90
8684;DHT22;4379;59.744;18.206;2024-02-26T15:56:34;3.30;99.90
8684;DHT22;4379;59.744;18.206;2024-02-26T15:59:02;3.20;99.90
8684;DHT22;4379;59.744;18.206;2024-02-26T16:01:29;3.20;99.90
8684;DHT22;4379;59.744;18.206;2024-02-26T16:03:58;3.10;99.90